METAR Data
IDs: Format: Raw Decoded Include TAF

Data at: 0200 UTC 01 Nov 2020

METAR for:LFQA (Reims/Prunay Aprt, GE, FR)
Text:LFQA 010130Z AUTO 33005KT 9999 BKN021 BKN035 OVC045 14/13 Q1017
Temperature: 14.0°C ( 57°F)
Dewpoint: 13.0°C ( 55°F) [RH = 94%]
Pressure (altimeter):30.03 inches Hg (1017.0 mb)
Winds:from the NNW (330 degrees) at 6 MPH (5 knots; 2.6 m/s)
Visibility:6 or more sm (10+ km)
Ceiling:2100 feet AGL
Clouds: broken clouds at 2100 feet AGL, broken clouds at 3500 feet AGL, overcast cloud deck at 4500 feet AGL

TAF for:LFQA (Reims/Prunay Aprt, GE, FR)
Text:No data found